Time;durP1;ratioP1;P1;durP2;ratioP2;P2;SDS_P1;SDS_P2;PMS_P1;PMS_P2;Temp;Humidity;BMP_temperature;BMP_pressure;BME280_temperature;BME280_humidity;BME280_pressure;Samples;Min_cycle;Max_cycle;Signal;HPM_P1;HPM_P2
2021/09/19 00:00:39;;;;;;;17.33;9.30;;;;;;;1.59;100.00;102511.59;2572831;55;20103;-68
2021/09/19 00:03:08;;;;;;;23.40;10.63;;;;;;;1.60;100.00;102515.97;2572750;55;20124;-68
2021/09/19 00:05:35;;;;;;;18.90;9.15;;;;;;;1.60;100.00;102499.31;2572867;55;20124;-69
2021/09/19 00:08:02;;;;;;;17.27;7.70;;;;;;;1.62;100.00;102508.09;2572515;55;20116;-68
2021/09/19 00:10:29;;;;;;;14.05;6.70;;;;;;;1.65;100.00;102514.19;2572781;55;20105;-68
2021/09/19 00:12:56;;;;;;;11.02;6.03;;;;;;;1.62;100.00;102503.69;2572760;55;20109;-68
2021/09/19 00:15:23;;;;;;;12.57;5.87;;;;;;;1.63;100.00;102509.81;2572638;55;20662;-69
2021/09/19 00:17:51;;;;;;;11.52;5.80;;;;;;;1.63;100.00;102515.94;2572628;55;20121;-68
2021/09/19 00:20:18;;;;;;;11.27;6.22;;;;;;;1.59;100.00;102514.25;2572636;55;20132;-68
2021/09/19 00:22:45;;;;;;;10.45;6.32;;;;;;;1.60;100.00;102507.19;2572702;55;20744;-67
2021/09/19 00:25:13;;;;;;;9.85;5.65;;;;;;;1.52;100.00;102502.91;2567584;55;20120;-68
2021/09/19 00:27:41;;;;;;;9.43;5.72;;;;;;;1.56;100.00;102513.38;2572515;55;20653;-70
2021/09/19 00:30:11;;;;;;;9.27;5.93;;;;;;;1.56;100.00;102505.50;2572499;55;20135;-69
2021/09/19 00:32:40;;;;;;;10.02;5.97;;;;;;;1.52;100.00;102508.16;2572486;55;20621;-69
2021/09/19 00:35:08;;;;;;;12.52;5.30;;;;;;;1.50;100.00;102514.31;2572231;55;20106;-69
2021/09/19 00:37:37;;;;;;;12.93;5.82;;;;;;;1.47;100.00;102517.84;2572372;55;20140;-69
2021/09/19 00:40:06;;;;;;;8.73;4.90;;;;;;;1.41;100.00;102522.28;2572619;55;20391;-69
2021/09/19 00:42:34;;;;;;;8.60;5.55;;;;;;;1.36;100.00;102524.94;2572468;55;20558;-68
2021/09/19 00:45:03;;;;;;;11.05;5.35;;;;;;;1.29;100.00;102523.22;2572669;55;20105;-69
2021/09/19 00:47:31;;;;;;;12.43;5.60;;;;;;;1.25;100.00;102523.25;2572544;55;20124;-68
2021/09/19 00:49:58;;;;;;;13.27;5.70;;;;;;;1.23;100.00;102532.03;2572742;55;20122;-69
2021/09/19 00:52:25;;;;;;;13.27;5.50;;;;;;;1.18;100.00;102523.31;2572779;55;20110;-69
2021/09/19 00:54:58;;;;;;;11.07;5.78;;;;;;;1.16;100.00;102531.22;2572645;55;20631;-68
2021/09/19 00:57:27;;;;;;;15.40;7.37;;;;;;;1.16;100.00;102525.09;2572588;55;20564;-68
2021/09/19 00:59:55;;;;;;;15.75;7.35;;;;;;;1.07;100.00;102531.28;2572400;55;20106;-69
2021/09/19 01:02:22;;;;;;;19.80;9.50;;;;;;;1.01;100.00;102515.56;2572540;55;20137;-68
2021/09/19 01:04:50;;;;;;;46.97;21.20;;;;;;;1.00;100.00;102524.28;2572610;55;20133;-68
2021/09/19 01:07:17;;;;;;;57.25;26.10;;;;;;;0.91;100.00;102523.50;2572839;55;20139;-73
2021/09/19 01:09:45;;;;;;;56.05;20.95;;;;;;;0.87;100.00;102529.62;2572746;55;20133;-69
2021/09/19 01:12:13;;;;;;;49.15;17.35;;;;;;;0.82;100.00;102531.41;2567501;55;20520;-68
2021/09/19 01:14:41;;;;;;;33.25;13.18;;;;;;;0.77;100.00;102525.28;2572538;55;20140;-69
2021/09/19 01:17:09;;;;;;;29.60;11.57;;;;;;;0.72;100.00;102519.22;2572490;55;20136;-68
2021/09/19 01:19:37;;;;;;;19.35;8.50;;;;;;;0.71;100.00;102522.72;2572457;55;20139;-69
2021/09/19 01:22:05;;;;;;;16.52;7.20;;;;;;;0.68;100.00;102523.59;2572370;55;20129;-68
2021/09/19 01:24:34;;;;;;;12.60;6.97;;;;;;;0.64;100.00;102521.84;2572731;55;20183;-68
2021/09/19 01:27:01;;;;;;;16.10;6.72;;;;;;;0.60;100.00;102521.00;2573291;55;20113;-69
2021/09/19 01:29:29;;;;;;;12.52;6.18;;;;;;;0.57;100.00;102522.78;2573283;55;20117;-68
2021/09/19 01:31:57;;;;;;;11.55;6.03;;;;;;;0.56;100.00;102527.16;2573354;55;20136;-68
2021/09/19 01:34:24;;;;;;;14.50;6.90;;;;;;;0.56;100.00;102524.53;2573337;55;20125;-68
2021/09/19 01:36:52;;;;;;;12.80;6.00;;;;;;;0.53;100.00;102522.78;2573336;55;20125;-69
2021/09/19 01:39:19;;;;;;;10.32;6.05;;;;;;;0.55;100.00;102525.41;2573356;55;20506;-68
2021/09/19 01:41:49;;;;;;;10.00;5.55;;;;;;;0.54;100.00;102534.16;2568387;55;20106;-68
2021/09/19 01:44:16;;;;;;;13.00;6.65;;;;;;;0.51;100.00;102526.31;2573245;55;20114;-68
2021/09/19 01:46:43;;;;;;;11.88;6.07;;;;;;;0.52;100.00;102533.31;2573342;55;20619;-68
2021/09/19 01:49:10;;;;;;;11.98;7.10;;;;;;;0.50;100.00;102535.03;2573420;55;20106;-68
2021/09/19 01:51:38;;;;;;;13.27;5.80;;;;;;;0.48;100.00;102535.06;2573123;55;20131;-68
2021/09/19 01:54:05;;;;;;;14.82;6.43;;;;;;;0.50;100.00;102537.66;2573375;55;20115;-68
2021/09/19 01:56:32;;;;;;;10.65;6.00;;;;;;;0.49;100.00;102541.19;2573229;55;20126;-69
2021/09/19 01:59:00;;;;;;;12.32;6.90;;;;;;;0.47;100.00;102535.06;2573213;55;20128;-68
2021/09/19 02:01:30;;;;;;;13.07;6.62;;;;;;;0.48;100.00;102542.94;2573432;55;20630;-68
2021/09/19 02:03:57;;;;;;;13.45;6.22;;;;;;;0.46;100.00;102544.72;2573371;55;20132;-68
2021/09/19 02:06:25;;;;;;;13.45;6.30;;;;;;;0.43;100.00;102541.22;2573231;55;20110;-68
2021/09/19 02:08:52;;;;;;;13.85;6.95;;;;;;;0.39;100.00;102541.19;2573213;55;20122;-68
2021/09/19 02:11:20;;;;;;;12.25;6.87;;;;;;;0.38;100.00;102542.09;2573203;55;20140;-68
2021/09/19 02:13:49;;;;;;;13.07;7.03;;;;;;;0.35;100.00;102539.47;2573114;55;20136;-68
2021/09/19 02:16:20;;;;;;;15.90;8.48;;;;;;;0.37;100.00;102540.34;2573069;55;20698;-69
2021/09/19 02:18:48;;;;;;;12.75;7.43;;;;;;;0.34;100.00;102540.34;2573215;55;20632;-69
2021/09/19 02:21:16;;;;;;;13.80;6.90;;;;;;;0.32;100.00;102535.97;2573217;55;20118;-69
2021/09/19 02:23:43;;;;;;;10.77;6.28;;;;;;;0.30;100.00;102537.75;2573332;55;20110;-69
2021/09/19 02:26:11;;;;;;;16.65;7.45;;;;;;;0.31;100.00;102544.75;2568132;55;20641;-69
2021/09/19 02:28:38;;;;;;;18.35;7.95;;;;;;;0.31;100.00;102536.88;2573159;55;20109;-68
2021/09/19 02:31:05;;;;;;;12.70;6.87;;;;;;;0.32;100.00;102542.13;2573182;55;20140;-68
2021/09/19 02:33:33;;;;;;;14.18;7.62;;;;;;;0.31;100.00;102537.75;2573088;55;20535;-68
2021/09/19 02:36:01;;;;;;;15.05;7.07;;;;;;;0.31;100.00;102544.75;2573083;55;20127;-68
2021/09/19 02:38:28;;;;;;;13.90;7.75;;;;;;;0.20;100.00;102537.78;2573031;55;20495;-68
2021/09/19 02:40:55;;;;;;;19.27;8.00;;;;;;;0.22;100.00;102545.66;2573047;55;20106;-69
2021/09/19 02:43:23;;;;;;;15.85;7.70;;;;;;;0.17;100.00;102543.03;2573012;55;20560;-70
2021/09/19 02:45:51;;;;;;;16.58;8.13;;;;;;;0.20;100.00;102555.25;2573104;55;20110;-68
2021/09/19 02:48:19;;;;;;;16.15;7.87;;;;;;;0.16;100.00;102551.78;2573165;55;20239;-68
2021/09/19 02:50:47;;;;;;;17.58;7.57;;;;;;;0.15;100.00;102559.66;2573089;55;20192;-68
2021/09/19 02:53:13;;;;;;;15.88;7.85;;;;;;;0.11;100.00;102562.31;2573049;55;20140;-68
2021/09/19 02:55:41;;;;;;;15.20;8.75;;;;;;;0.15;100.00;102562.28;2573047;55;20500;-68
2021/09/19 02:58:09;;;;;;;13.43;7.57;;;;;;;0.08;100.00;102551.78;2572995;55;20127;-68
2021/09/19 03:00:36;;;;;;;14.35;7.60;;;;;;;0.10;100.00;102554.41;2573042;55;20125;-69
2021/09/19 03:03:04;;;;;;;15.20;7.85;;;;;;;0.07;100.00;102563.16;2572925;55;20117;-68
2021/09/19 03:05:31;;;;;;;14.02;8.27;;;;;;;0.03;100.00;102561.44;2572918;55;20889;-69
2021/09/19 03:07:59;;;;;;;14.95;7.75;;;;;;;-0.03;100.00;102561.44;2573020;55;20114;-68
2021/09/19 03:10:26;;;;;;;17.58;7.95;;;;;;;-0.09;100.00;102572.81;2572853;55;20114;-69
2021/09/19 03:12:53;;;;;;;14.98;7.78;;;;;;;-0.15;100.00;102571.06;2572898;55;20143;-68
2021/09/19 03:15:21;;;;;;;14.48;7.47;;;;;;;-0.18;100.00;102578.94;2572911;55;20113;-69
2021/09/19 03:17:48;;;;;;;15.18;7.57;;;;;;;-0.24;100.00;102578.06;2572925;55;20512;-69
2021/09/19 03:20:17;;;;;;;15.27;7.78;;;;;;;-0.33;100.00;102568.44;2572781;55;20118;-68
2021/09/19 03:22:45;;;;;;;13.48;8.10;;;;;;;-0.37;100.00;102571.94;2572805;55;20140;-69
2021/09/19 03:25:13;;;;;;;20.95;7.50;;;;;;;-0.44;100.00;102566.69;2572919;55;20114;-68
2021/09/19 03:27:42;;;;;;;12.77;7.20;;;;;;;-0.50;100.00;102569.31;2572987;55;20500;-69
2021/09/19 03:30:11;;;;;;;15.10;7.80;;;;;;;-0.50;100.00;102577.19;2573075;55;20539;-69
2021/09/19 03:32:38;;;;;;;14.27;7.40;;;;;;;-0.54;100.00;102569.31;2573022;55;20113;-68
2021/09/19 03:35:06;;;;;;;14.02;6.97;;;;;;;-0.54;100.00;102575.41;2572763;55;20110;-68
2021/09/19 03:37:33;;;;;;;15.13;9.52;;;;;;;-0.57;100.00;102575.41;2572858;55;20615;-68
2021/09/19 03:40:01;;;;;;;16.90;8.23;;;;;;;-0.60;100.00;102572.78;2572804;55;20109;-69
2021/09/19 03:42:29;;;;;;;12.73;7.45;;;;;;;-0.61;100.00;102578.91;2572781;55;20136;-69
2021/09/19 03:44:56;;;;;;;12.07;7.07;;;;;;;-0.66;100.00;102578.03;2572918;55;20105;-68
2021/09/19 03:47:23;;;;;;;13.20;8.00;;;;;;;-0.68;100.00;102582.41;2572668;55;20126;-69
2021/09/19 03:49:50;;;;;;;13.05;7.65;;;;;;;-0.69;100.00;102576.28;2572822;55;20131;-68
2021/09/19 03:52:18;;;;;;;13.52;7.30;;;;;;;-0.68;100.00;102585.03;2572883;55;20106;-68
2021/09/19 03:54:46;;;;;;;14.98;7.15;;;;;;;-0.66;100.00;102583.28;2572847;55;20131;-69
2021/09/19 03:57:13;;;;;;;16.20;8.20;;;;;;;-0.65;100.00;102592.87;2572807;55;20117;-68
2021/09/19 03:59:40;;;;;;;14.40;8.15;;;;;;;-0.65;100.00;102587.62;2572794;55;21088;-68
2021/09/19 04:02:08;;;;;;;14.57;8.55;;;;;;;-0.57;100.00;102585.91;2572548;55;20191;-68
2021/09/19 04:04:35;;;;;;;26.50;11.48;;;;;;;-0.48;100.00;102585.94;2572753;55;20135;-68
2021/09/19 04:07:02;;;;;;;27.10;11.88;;;;;;;-0.45;100.00;102593.78;2572778;55;20114;-69
2021/09/19 04:09:29;;;;;;;22.85;11.95;;;;;;;-0.40;100.00;102595.53;2567735;55;20666;-68
2021/09/19 04:11:56;;;;;;;20.55;11.02;;;;;;;-0.39;100.00;102584.19;2572981;55;20114;-68
2021/09/19 04:14:23;;;;;;;21.58;12.13;;;;;;;-0.33;100.00;102597.28;2572641;55;20139;-68
2021/09/19 04:16:52;;;;;;;24.73;12.07;;;;;;;-0.28;100.00;102598.19;2572834;55;20615;-68
2021/09/19 04:19:20;;;;;;;19.73;12.45;;;;;;;-0.24;100.00;102591.19;2572672;55;20132;-68
2021/09/19 04:21:47;;;;;;;28.77;14.55;;;;;;;-0.20;100.00;102591.19;2572832;55;20100;-68
2021/09/19 04:24:14;;;;;;;22.25;12.20;;;;;;;-0.19;100.00;102592.06;2572637;55;20138;-68
2021/09/19 04:26:41;;;;;;;24.58;12.52;;;;;;;-0.16;100.00;102590.31;2572664;55;20132;-68
2021/09/19 04:29:08;;;;;;;20.95;11.12;;;;;;;-0.13;100.00;102593.81;2572541;55;20121;-68
2021/09/19 04:31:35;;;;;;;21.17;11.60;;;;;;;-0.10;100.00;102596.41;2572651;55;20112;-68
2021/09/19 04:34:03;;;;;;;19.67;9.70;;;;;;;-0.08;100.00;102599.94;2572598;55;20144;-68
2021/09/19 04:36:30;;;;;;;20.83;10.30;;;;;;;-0.03;100.00;102593.81;2572623;55;20114;-68
2021/09/19 04:38:57;;;;;;;20.88;10.90;;;;;;;-0.02;100.00;102592.03;2572898;55;20118;-68
2021/09/19 04:41:24;;;;;;;21.75;10.95;;;;;;;0.06;100.00;102598.16;2572641;55;20482;-68
2021/09/19 04:43:51;;;;;;;21.90;11.52;;;;;;;0.09;100.00;102602.56;2572579;55;20139;-69
2021/09/19 04:46:18;;;;;;;22.40;13.27;;;;;;;0.13;100.00;102599.91;2572652;55;20124;-69
2021/09/19 04:48:46;;;;;;;20.55;13.00;;;;;;;0.21;100.00;102599.03;2572750;55;20135;-69
2021/09/19 04:51:13;;;;;;;26.50;15.10;;;;;;;0.25;100.00;102593.78;2567464;55;20114;-68
2021/09/19 04:53:40;;;;;;;27.98;13.82;;;;;;;0.33;100.00;102601.66;2572662;55;20633;-68
2021/09/19 04:56:08;;;;;;;28.73;15.65;;;;;;;0.38;100.00;102599.87;2572396;55;20781;-68
2021/09/19 04:58:35;;;;;;;23.15;11.98;;;;;;;0.43;100.00;102599.00;2572877;55;20106;-68
2021/09/19 05:01:02;;;;;;;22.45;11.80;;;;;;;0.51;100.00;102602.47;2573749;55;20106;-69
2021/09/19 05:03:29;;;;;;;15.43;9.23;;;;;;;0.58;100.00;102606.81;2568455;55;20630;-68
2021/09/19 05:05:56;;;;;;;17.62;10.57;;;;;;;0.63;100.00;102602.44;2573626;55;20118;-68
2021/09/19 05:08:25;;;;;;;17.02;10.38;;;;;;;0.72;100.00;102608.56;2573393;55;20136;-68
2021/09/19 05:10:52;;;;;;;19.25;10.77;;;;;;;0.78;100.00;102600.63;2573383;55;20160;-69
2021/09/19 05:13:20;;;;;;;16.23;10.13;;;;;;;0.82;100.00;102595.34;2573605;55;20135;-68
2021/09/19 05:15:47;;;;;;;17.55;10.20;;;;;;;0.91;100.00;102602.34;2568460;55;20144;-68
2021/09/19 05:18:15;;;;;;;15.75;9.93;;;;;;;1.02;100.00;102611.94;2573417;55;20109;-68
2021/09/19 05:20:42;;;;;;;16.00;9.18;;;;;;;1.13;100.00;102603.97;2573382;55;20110;-68
2021/09/19 05:23:09;;;;;;;15.02;9.32;;;;;;;1.25;100.00;102603.91;2573298;55;20117;-69
2021/09/19 05:25:39;;;;;;;15.02;8.57;;;;;;;1.34;100.00;102609.09;2573515;55;20512;-69
2021/09/19 05:28:06;;;;;;;16.02;9.10;;;;;;;1.45;100.00;102601.16;2573457;55;20612;-68
2021/09/19 05:30:33;;;;;;;17.12;9.07;;;;;;;1.70;100.00;102611.50;2573173;55;20109;-69
2021/09/19 05:33:00;;;;;;;17.73;9.20;;;;;;;1.85;100.00;102609.66;2573426;55;20280;-68
2021/09/19 05:35:27;;;;;;;15.00;8.82;;;;;;;1.93;100.00;102603.44;2573403;55;20113;-69
2021/09/19 05:37:54;;;;;;;13.57;9.18;;;;;;;1.98;100.00;102616.56;2573408;55;20121;-69
2021/09/19 05:40:22;;;;;;;12.63;7.53;;;;;;;2.08;100.00;102617.38;2573204;55;20120;-69
2021/09/19 05:42:49;;;;;;;14.77;9.00;;;;;;;2.08;100.00;102618.22;2573255;55;20105;-68
2021/09/19 05:45:16;;;;;;;15.88;8.95;;;;;;;2.08;100.00;102623.47;2573240;55;20113;-69
2021/09/19 05:47:44;;;;;;;13.80;8.77;;;;;;;2.14;100.00;102622.56;2573198;55;20149;-68
2021/09/19 05:50:11;;;;;;;15.75;9.70;;;;;;;2.21;100.00;102615.50;2573130;55;20114;-69
2021/09/19 05:52:38;;;;;;;13.02;8.55;;;;;;;2.28;100.00;102624.22;2573000;55;20655;-69
2021/09/19 05:55:07;;;;;;;13.98;9.02;;;;;;;2.38;100.00;102623.22;2573172;55;20105;-68
2021/09/19 05:57:34;;;;;;;11.02;7.10;;;;;;;2.50;100.00;102625.72;2573132;55;20125;-68
2021/09/19 06:00:04;;;;;;;12.68;7.93;;;;;;;2.67;100.00;102626.44;2573380;55;20579;-68
2021/09/19 06:02:32;;;;;;;16.37;10.43;;;;;;;2.84;100.00;102619.19;2573159;55;20131;-68
2021/09/19 06:04:59;;;;;;;15.32;10.27;;;;;;;3.02;100.00;102619.87;2573248;55;20127;-69
2021/09/19 06:07:26;;;;;;;16.15;9.45;;;;;;;3.15;100.00;102613.53;2573414;55;20642;-68
2021/09/19 06:09:53;;;;;;;15.88;9.18;;;;;;;3.39;100.00;102621.12;2573033;55;20121;-68
2021/09/19 06:12:21;;;;;;;15.23;9.77;;;;;;;3.54;100.00;102622.69;2573276;55;20124;-69
2021/09/19 06:14:49;;;;;;;17.02;9.80;;;;;;;3.66;100.00;102614.56;2572648;55;20136;-68
2021/09/19 06:17:19;;;;;;;11.52;7.35;;;;;;;3.76;100.00;102615.31;2572498;55;20521;-68
2021/09/19 06:19:46;;;;;;;15.05;7.75;;;;;;;3.85;100.00;102615.12;2573143;55;20125;-68
2021/09/19 06:22:13;;;;;;;18.08;9.48;;;;;;;3.91;100.00;102619.47;2573124;55;20114;-69
2021/09/19 06:24:40;;;;;;;14.30;4.35;;;;;;;4.07;98.99;102619.19;2573146;55;20136;-68
2021/09/19 06:27:08;;;;;;;9.98;5.93;;;;;;;4.00;98.61;102615.78;2573204;55;20144;-68
2021/09/19 06:29:35;;;;;;;10.98;6.40;;;;;;;4.00;99.50;102624.56;2573223;55;20110;-68
2021/09/19 06:32:03;;;;;;;13.95;8.45;;;;;;;4.00;98.06;102619.28;2573172;55;20114;-68
2021/09/19 06:34:31;;;;;;;8.13;6.15;;;;;;;4.03;97.64;102624.53;2572811;55;20113;-69
2021/09/19 06:36:58;;;;;;;14.07;7.50;;;;;;;4.00;98.83;102616.63;2572880;55;20122;-68
2021/09/19 06:39:25;;;;;;;14.95;8.52;;;;;;;4.06;98.28;102620.09;2572557;55;20124;-69
2021/09/19 06:41:53;;;;;;;11.05;7.00;;;;;;;4.12;96.66;102620.84;2571874;55;20105;-69
2021/09/19 06:44:20;;;;;;;10.27;6.22;;;;;;;4.12;95.24;102623.47;2572699;55;20117;-69
2021/09/19 06:46:47;;;;;;;9.43;6.35;;;;;;;4.16;96.08;102619.03;2572785;55;20105;-69
2021/09/19 06:49:14;;;;;;;12.37;6.50;;;;;;;4.21;95.08;102619.84;2572709;55;20821;-69
2021/09/19 06:51:42;;;;;;;10.10;6.12;;;;;;;4.36;93.90;102610.75;2572056;55;20524;-71
2021/09/19 06:54:10;;;;;;;11.35;7.07;;;;;;;4.51;93.98;102620.16;2572952;55;20176;-68
2021/09/19 06:56:38;;;;;;;15.57;10.10;;;;;;;4.74;94.79;102613.53;2573085;55;20114;-68
2021/09/19 06:59:05;;;;;;;8.93;4.82;;;;;;;5.03;89.68;102617.38;2572170;55;20136;-69
2021/09/19 07:01:32;;;;;;;9.48;6.00;;;;;;;5.18;90.48;102604.69;2570808;55;20113;-69
2021/09/19 07:03:59;;;;;;;8.48;4.72;;;;;;;5.45;89.08;102612.91;2566716;55;20120;-69
2021/09/19 07:06:26;;;;;;;10.93;4.22;;;;;;;5.55;87.79;102619.75;2566871;55;20122;-68
2021/09/19 07:08:54;;;;;;;12.00;6.75;;;;;;;5.52;89.29;102609.22;2567416;55;20111;-68
2021/09/19 07:11:21;;;;;;;4.90;4.03;;;;;;;5.64;85.54;102624.81;2568321;55;20101;-68
2021/09/19 07:13:49;;;;;;;8.73;4.40;;;;;;;5.65;84.54;102618.59;2567549;55;20106;-69
2021/09/19 07:16:17;;;;;;;8.82;6.55;;;;;;;5.52;85.24;102609.22;2566817;55;20120;-69
2021/09/19 07:18:45;;;;;;;10.15;6.45;;;;;;;5.41;87.09;102610.34;2566825;55;20118;-70
2021/09/19 07:21:12;;;;;;;9.15;6.30;;;;;;;5.36;86.48;102604.28;2566515;55;20110;-69
2021/09/19 07:23:40;;;;;;;11.48;8.05;;;;;;;5.41;89.88;102617.41;2566940;55;20113;-69
2021/09/19 07:26:09;;;;;;;12.15;9.15;;;;;;;5.60;87.63;102620.47;2566810;55;20694;-68
2021/09/19 07:28:36;;;;;;;7.53;5.43;;;;;;;5.77;86.02;102613.91;2561554;55;20130;-68
2021/09/19 07:31:04;;;;;;;9.63;6.65;;;;;;;5.92;83.46;102624.16;2566754;55;20117;-69
2021/09/19 07:33:32;;;;;;;9.88;6.40;;;;;;;6.06;82.49;102610.59;2567306;55;20114;-68
2021/09/19 07:35:59;;;;;;;10.60;6.53;;;;;;;6.33;81.50;102615.19;2567401;55;20118;-68
2021/09/19 07:38:27;;;;;;;6.97;4.75;;;;;;;6.64;78.96;102619.66;2566823;55;20158;-68
2021/09/19 07:40:55;;;;;;;9.25;4.25;;;;;;;6.75;76.77;102608.72;2566492;55;20666;-67
2021/09/19 07:43:24;;;;;;;12.25;6.95;;;;;;;6.72;79.34;102603.50;2567761;55;20142;-67
2021/09/19 07:45:52;;;;;;;13.70;5.15;;;;;;;7.02;78.20;102617.69;2566131;55;20118;-67
2021/09/19 07:48:21;;;;;;;6.40;3.40;;;;;;;7.11;74.13;102600.59;2566764;55;20169;-68
2021/09/19 07:50:48;;;;;;;5.87;3.50;;;;;;;7.19;72.64;102608.31;2566852;55;20138;-67
2021/09/19 07:53:15;;;;;;;7.93;5.07;;;;;;;7.08;74.95;102590.09;2566189;55;20113;-68
2021/09/19 07:55:43;;;;;;;10.70;5.60;;;;;;;7.16;72.58;102592.50;2566829;55;20133;-68
2021/09/19 07:58:10;;;;;;;5.60;4.93;;;;;;;7.10;71.47;102602.38;2566685;55;20111;-67
2021/09/19 08:00:37;;;;;;;17.08;9.40;;;;;;;7.02;70.74;102596.44;2566267;55;20110;-68
2021/09/19 08:03:05;;;;;;;4.30;2.87;;;;;;;7.03;70.06;102589.34;2566650;55;20125;-68
2021/09/19 08:05:33;;;;;;;6.12;4.53;;;;;;;6.65;71.12;102603.69;2566373;55;20117;-68
2021/09/19 08:08:00;;;;;;;11.10;7.62;;;;;;;6.63;73.51;102594.03;2567693;55;20133;-68
2021/09/19 08:10:29;;;;;;;9.80;4.78;;;;;;;6.67;72.39;102601.88;2565310;55;20135;-68
2021/09/19 08:12:56;;;;;;;8.25;6.35;;;;;;;6.57;74.46;102588.91;2569966;55;20105;-68
2021/09/19 08:15:23;;;;;;;7.00;5.53;;;;;;;6.85;77.43;102594.28;2564241;55;20498;-68
2021/09/19 08:17:52;;;;;;;4.40;3.67;;;;;;;6.92;72.03;102598.50;2560809;55;20098;-68
2021/09/19 08:20:19;;;;;;;4.60;3.42;;;;;;;6.83;72.96;102598.75;2565391;55;20094;-68
2021/09/19 08:22:47;;;;;;;5.62;3.85;;;;;;;6.80;73.42;102599.72;2564975;55;20114;-68
2021/09/19 08:25:15;;;;;;;9.50;4.97;;;;;;;6.84;74.91;102604.94;2565387;55;20640;-68
2021/09/19 08:27:43;;;;;;;5.10;3.20;;;;;;;6.85;71.49;102599.56;2569207;55;20109;-67
2021/09/19 08:30:13;;;;;;;4.53;3.58;;;;;;;6.63;72.37;102600.19;2569439;55;20131;-67
2021/09/19 08:32:41;;;;;;;8.95;3.92;;;;;;;6.51;73.42;102601.44;2569394;55;20242;-66
2021/09/19 08:35:10;;;;;;;8.10;6.43;;;;;;;6.43;76.51;102587.53;2569233;55;20114;-68
2021/09/19 08:37:37;;;;;;;6.72;5.57;;;;;;;6.56;76.81;102587.16;2570969;55;20118;-67
2021/09/19 08:40:08;;;;;;;6.43;4.78;;;;;;;6.53;74.86;102594.31;2569994;55;20136;-67
2021/09/19 08:42:37;;;;;;;8.90;5.15;;;;;;;6.40;76.96;102599.06;2569887;55;20135;-68
2021/09/19 08:45:07;;;;;;;7.10;4.62;;;;;;;6.28;75.18;102595.87;2570016;55;20117;-67
2021/09/19 08:47:36;;;;;;;7.53;5.97;;;;;;;6.22;75.69;102592.50;2570230;55;20128;-67
2021/09/19 08:50:03;;;;;;;13.40;6.03;;;;;;;6.24;76.23;102590.66;2569763;55;20503;-67
2021/09/19 08:52:31;;;;;;;8.68;5.97;;;;;;;6.34;77.33;102593.06;2567220;55;20145;-67
2021/09/19 08:54:59;;;;;;;10.25;6.72;;;;;;;6.38;77.53;102597.38;2569472;55;20117;-67
2021/09/19 08:57:26;;;;;;;6.20;5.18;;;;;;;6.60;75.60;102584.38;2569877;55;20126;-67
2021/09/19 08:59:55;;;;;;;7.62;6.20;;;;;;;6.70;76.66;102573.50;2569525;55;20117;-67
2021/09/19 09:02:22;;;;;;;8.18;6.03;;;;;;;6.82;75.77;102567.84;2569524;55;20502;-67
2021/09/19 09:04:55;;;;;;;6.97;5.37;;;;;;;6.89;74.19;102592.41;2568496;55;20202;-67
2021/09/19 09:07:24;;;;;;;6.05;4.25;;;;;;;6.94;73.48;102595.81;2567868;55;20128;-66
2021/09/19 09:09:54;;;;;;;5.85;4.82;;;;;;;6.81;73.18;102582.03;2568936;55;20136;-67
2021/09/19 09:12:22;;;;;;;4.53;3.95;;;;;;;6.82;72.34;102581.09;2567771;55;20529;-66
2021/09/19 09:14:51;;;;;;;5.22;4.20;;;;;;;6.80;73.67;102590.91;2569039;55;20626;-65
2021/09/19 09:17:24;;;;;;;5.53;4.78;;;;;;;6.90;73.37;102576.44;2567789;55;20126;-66
2021/09/19 09:19:53;;;;;;;6.68;5.28;;;;;;;7.08;73.31;102582.13;2568921;55;20161;-65
2021/09/19 09:22:22;;;;;;;5.20;3.50;;;;;;;7.29;70.33;102583.22;2569547;55;20121;-67
2021/09/19 09:25:09;;;;;;;6.90;5.65;;;;;;;7.27;73.28;102582.41;2569268;55;20143;-66
2021/09/19 09:27:41;;;;;;;7.40;4.93;;;;;;;7.50;71.38;102596.72;2564425;55;20126;-67
2021/09/19 09:30:11;;;;;;;8.20;4.20;;;;;;;7.59;68.70;102587.62;2568494;55;20125;-67
2021/09/19 09:32:53;;;;;;;6.97;5.47;;;;;;;7.35;69.67;102583.03;2569019;55;20124;-67
2021/09/19 09:35:21;;;;;;;8.75;7.30;;;;;;;7.35;71.71;102582.16;2566662;55;20139;-67
2021/09/19 09:37:49;;;;;;;6.47;5.00;;;;;;;7.63;68.29;102590.13;2568188;55;20136;-67
2021/09/19 09:40:19;;;;;;;5.55;4.95;;;;;;;7.84;67.89;102589.44;2569207;55;20152;-67
2021/09/19 09:43:08;;;;;;;8.27;5.20;;;;;;;8.13;67.12;102579.59;2569733;55;20126;-67
2021/09/19 09:45:38;;;;;;;5.78;4.78;;;;;;;8.24;63.86;102592.53;2570350;55;20113;-67
2021/09/19 09:48:24;;;;;;;9.18;6.03;;;;;;;8.34;66.28;102580.66;2569983;55;20982;-67
2021/09/19 09:50:53;;;;;;;7.43;6.12;;;;;;;8.35;66.23;102598.34;2570434;55;20136;-67
2021/09/19 09:53:22;;;;;;;9.45;5.72;;;;;;;8.22;64.61;102584.59;2570412;55;20125;-67
2021/09/19 09:55:51;;;;;;;7.80;6.18;;;;;;;8.35;67.25;102588.53;2569202;55;20762;-67
2021/09/19 09:58:21;;;;;;;8.73;5.03;;;;;;;8.56;64.15;102593.19;2570035;55;20121;-67
2021/09/19 10:00:50;;;;;;;9.15;6.60;;;;;;;8.66;66.29;102578.63;2570329;55;20398;-67
2021/09/19 10:03:18;;;;;;;8.68;6.53;;;;;;;8.99;64.64;102580.91;2570507;55;20516;-67
2021/09/19 10:05:45;;;;;;;11.07;6.50;;;;;;;9.14;62.94;102575.94;2570707;55;20143;-67
2021/09/19 10:08:12;;;;;;;12.68;8.07;;;;;;;9.34;64.10;102577.78;2570695;55;20121;-67
2021/09/19 10:10:43;;;;;;;10.55;6.28;;;;;;;9.58;62.83;102586.59;2570501;55;20114;-68
2021/09/19 10:13:12;;;;;;;10.13;6.40;;;;;;;9.47;60.27;102586.16;2570480;55;20128;-68
2021/09/19 10:15:40;;;;;;;11.25;8.30;;;;;;;9.08;61.01;102570.84;2570443;55;20702;-68
2021/09/19 10:18:09;;;;;;;13.52;9.55;;;;;;;8.84;63.16;102560.22;2570421;55;20122;-68
2021/09/19 10:20:39;;;;;;;13.35;9.30;;;;;;;8.94;65.01;102574.03;2570451;55;20144;-68
2021/09/19 10:23:12;;;;;;;9.40;6.35;;;;;;;8.96;62.40;102570.41;2569949;55;20122;-66
2021/09/19 10:25:48;;;;;;;11.68;6.93;;;;;;;9.01;62.72;102565.75;2570501;55;20117;-68
2021/09/19 10:28:22;;;;;;;12.70;7.50;;;;;;;8.93;62.19;102551.87;2570541;55;20143;-67
2021/09/19 10:31:18;;;;;;;12.23;7.50;;;;;;;9.05;60.73;102558.50;2570485;55;20148;-67
2021/09/19 10:33:49;;;;;;;9.65;5.35;;;;;;;8.81;61.68;102550.56;2569463;55;20144;-67
2021/09/19 10:36:40;;;;;;;16.23;7.60;;;;;;;9.09;60.55;102544.16;2570063;55;20168;-68
2021/09/19 10:39:25;;;;;;;9.30;6.87;;;;;;;9.01;63.03;102551.56;2569687;55;20155;-66
2021/09/19 10:42:27;;;;;;;12.37;7.25;;;;;;;9.00;63.24;102550.69;2569787;55;20729;-68
2021/09/19 10:45:15;;;;;;;11.45;6.62;;;;;;;9.01;63.20;102551.56;2569838;55;20102;-68
2021/09/19 10:47:45;;;;;;;12.93;6.57;;;;;;;8.94;62.60;102535.00;2568073;55;20140;-69
2021/09/19 10:50:25;;;;;;;7.20;5.20;;;;;;;9.13;61.45;102550.25;2569076;55;20527;-69
2021/09/19 10:52:55;;;;;;;6.65;4.45;;;;;;;9.09;61.88;102540.62;2568822;55;20499;-68
2021/09/19 10:55:26;;;;;;;11.68;5.75;;;;;;;8.95;61.25;102542.03;2563880;55;20769;-68
2021/09/19 10:57:55;;;;;;;7.35;5.43;;;;;;;9.02;62.79;102542.66;2570206;55;20129;-68
2021/09/19 11:00:24;;;;;;;8.65;5.10;;;;;;;9.14;62.88;102536.84;2570144;55;20164;-68
2021/09/19 11:03:06;;;;;;;5.93;4.68;;;;;;;9.40;61.91;102534.03;2570308;55;20237;-70
2021/09/19 11:05:36;;;;;;;7.62;4.75;;;;;;;9.49;61.79;102541.66;2570670;55;20117;-69
2021/09/19 11:08:15;;;;;;;6.47;4.65;;;;;;;9.45;62.49;102532.06;2570671;55;20497;-69
2021/09/19 11:11:05;;;;;;;5.47;4.55;;;;;;;9.50;62.55;102538.06;2567880;55;20124;-70
2021/09/19 11:13:38;;;;;;;6.20;3.70;;;;;;;9.60;60.77;102528.75;2565476;55;20122;-71
2021/09/19 11:16:24;;;;;;;6.60;4.22;;;;;;;9.45;62.20;102518.75;2565211;55;20529;-70
2021/09/19 11:18:53;;;;;;;3.83;3.40;;;;;;;9.42;60.19;102516.19;2563670;55;20120;-71
2021/09/19 11:21:30;;;;;;;5.40;4.15;;;;;;;9.33;63.25;102515.66;2565016;55;20133;-71
2021/09/19 11:24:03;;;;;;;6.15;3.40;;;;;;;9.26;61.58;102521.28;2564761;55;20793;-69
2021/09/19 11:26:33;;;;;;;5.55;3.95;;;;;;;9.24;63.61;102516.03;2565307;55;20136;-71
2021/09/19 11:29:03;;;;;;;4.00;2.58;;;;;;;9.39;60.69;102508.34;2564725;55;20511;-71